aviador You're here:

KNFG Decoded Metar

CAMP PENDLETON in CA, USA
Report Time2017-09-20 06:55:00
UTC Time2017-09-20 07:32:56
Flight Rules mvfr MVFR
WindCalm
Visibility9999 m
Phenomena:N/A
Clouds:Overcast 022 Hf
Expected CloudBase > 2,000 ft AGL from Temp-Dew spread
Ceiling2,200 ft
Temp20°C (ISA +5)
Dew Point15°C (73% RH)
QNH1012 hPa
Density Alt945 ft
Elevation79 ft
Report Wrong Elevation
Raw Report
KNFG 200655Z 00000KT 7SM OVC022 20/15 A2989 RMK AO2 SLP120
T02000150 PNO $=

Extra information for KNFG:More info

Metar Taf Metar & Taf Last 4 Metars F.Rules Stats Wind Profile Meteogram Temp Stats Airport Information Weather charts Add Link Nearby VenuesMetar ALERT Operation Metar Decoded Social comments

AIRNAV info for KNFG